Loisir ou Compétition : Rejoignez un Club de la Fédération

Résultats

LA TRANSJURASSIENNE 2012

LAMOURA MOUTHE

FP Dames

Jury de Compétition

Délégué Technique :
LOCATELLI DOMINIQUE (DA)
D.T. Adjoint :
 
Dir. Epreuve :
VANDEL PIERRE (MJ)

Caractéristiques de la Piste

Piste :
Lamoura-Mouthe
Distance :
30 km
Point Haut :
 
Point Bas :
 
Montée Tot. :
 
Montée Max. :
 
Homologation :
 

Pénalité Appliquée :
91.2200
Coefficient :
1400

Catégorie :
JEU->M12
Style :
L
Clt Dos Clt/Cat Code An Nom Prénom Com Club Temps Ecart Points
Classés
1 6013 1/SEN FFS2600933 1990 Dewaele Marine MB CLUB DES SPO 1h46:31.3 00:00.0 91.22
2 6203 2/SEN FFS730202 1985 Arbez Anne Flore MJ U.S CHAUMERA 1h55:41.6 09:10.3 211.76
3 6204 3/SEN FFS2323001 1990 Verguet Morvane MJ A.S LES MOUS 2h06:41.4 20:10.1 356.29
4 6231 1/JUN FFS2644055 1993 [I]CRETIN MELISSA MJ SKI CLUB BOI 2h23:54.7 37:23.4 582.63
5 6208 2/JUN FFS2292465 1992 Grenard Mathilde 2h24:11.3 37:40.0 586.27
6 6206 4/SEN TIC6282748 1991 Vauchier Justine 2h25:18.1 38:46.8 600.90
7 6305 5/SEN TIC6280803 1985 Barbie Laetitia 2h25:23.2 38:51.9 602.02
8 6201 1/Mas2 FFS891379 1973 Grebot Christelle LY CLUB SPORTIF 2h27:33.9 41:02.6 630.65
9 6273 1/Mas1 TIC6281896 1979 Lecomte Emilie 2h29:27.4 42:56.1 655.51
10 6202 6/SEN TIC6281154 1982 Combette Karine 2h29:44.4 43:13.1 659.23
11 6247 7/SEN TIC6282678 1983 Thiollet Céline 2h31:06.9 44:35.6 677.30
12 6215 2/Mas2 TIC6282044 1973 Maschner Alexandra 2h32:57.4 46:26.1 701.51
13 6233 1/Mas3 TIC6280910 1970 Boissenin Christelle 2h34:20.1 47:48.8 719.62
14 6218 2/Mas1 TIC6282366 1978 Pokorna Michaela 2h35:56.6 49:25.3 740.76
15 6214 8/SEN TIC6282462 1989 Rieme Camille 2h38:11.1 51:39.8 770.22
16 6246 3/Mas1 TIC6282030 1979 Marti Céline 2h39:00.3 52:29.0 781.00
17 6242 3/Mas2 LCN11298426 1972 Goutiere Chantal SA CLUB DES SPO 2h43:34.3 57:03.0 841.02
18 6205 9/SEN TIC6281861 1987 Lanquetin Cécile 2h44:24.2 57:52.9 851.95
19 6302 10/SEN TIC6281086 1988 Charbet Béatrice 2h45:13.2 58:41.9 862.68
20 6211 11/SEN TIC6282447 1986 Revaux Elodie 2h45:26.8 58:55.5 865.66
21 6248 1/Mas5 TIC6281033 1961 Cannon Lindsay 2h47:16.2 1h00:44.9 889.63
22 6235 4/Mas2 TIC6282573 1974 Scott Kate 2h48:22.4 1h01:51.1 904.13
23 6236 5/Mas2 TIC6281635 1973 Guinoiseau Linda 2h51:07.5 1h04:36.2 940.29
24 6277 2/Mas5 TIC6280789 1958 Bacot Reaume Véronique 2h51:08.1 1h04:36.8 940.42
25 6293 12/SEN TIC6282099 1982 Merigeau Marie 2h51:54.8 1h05:23.5 950.65
26 6314 13/SEN TIC6282058 1982 Mauduit-Fromaget Claire 2h53:08.8 1h06:37.5 966.86
27 6257 4/Mas1 TIC6282770 1981 Vidal Mélanie 2h53:56.7 1h07:25.4 977.36
28 6286 14/SEN TIC6281720 1984 Jacques Sandrine 2h54:24.8 1h07:53.5 983.51
29 6213 15/SEN TIC6280814 1987 Barthelon Justine 2h56:58.8 1h10:27.5 1017.24
30 6220 5/Mas1 TIC6282260 1979 Paillard Aline 2h58:14.1 1h11:42.8 1033.74
31 6296 16/SEN TIC6281817 1986 Kounina Anna 2h58:42.3 1h12:11.0 1039.92
32 6253 2/Mas3 TIC6280929 1967 Bony Sophie 2h59:02.8 1h12:31.5 1044.41
33 6210 17/SEN TIC6282778 1982 Vincent Anne 3h01:02.3 1h14:31.0 1070.58
34 6288 18/SEN TIC6281760 1986 Jolivot Sylvie 3h03:33.6 1h17:02.3 1103.72
35 6291 19/SEN TIC6281100 1986 Chemin Doriane 3h03:33.7 1h17:02.4 1103.72
36 6294 6/Mas2 TIC6281723 1972 Jacquet Isabelle 3h05:01.3 1h18:30.0 1122.92
37 6228 6/Mas1 TIC6281300 1977 Desrumaux Marie 3h06:08.6 1h19:37.3 1137.62
38 6245 1/Mas6 TIC6282050 1953 Mathey Christiane 3h07:03.1 1h20:31.8 1149.62
39 6254 20/SEN TIC6281772 1985 Jouny Marine 3h07:50.3 1h21:19.0 1159.92
40 6216 21/SEN TIC6282191 1990 Munier Sandra 3h08:23.7 1h21:52.4 1167.22
41 6226 3/Mas3 TIC6282478 1968 Robyn Laurence 3h08:50.7 1h22:19.4 1173.12
42 6307 7/Mas2 TIC6282230 1976 Nugues-Ramos Stéphanie 3h11:12.6 1h24:41.3 1204.22
43 6209 4/Mas3 TIC6281665 1971 Heinrand Monika 3h12:47.5 1h26:16.2 1225.02
44 6300 1/Mas4 TIC6281646 1963 Hablot Catherine 3h16:39.2 1h30:07.9 1275.72
45 6256 22/SEN TIC6282531 1983 Sainte-Marie Sophie 3h17:32.4 1h31:01.1 1287.42
46 6258 23/SEN TIC6282772 1982 Vidberg Marie 3h18:30.6 1h31:59.3 1300.12
47 6241 24/SEN TIC6282276 1986 Parisot Estelle 3h18:56.3 1h32:25.0 1305.82
48 6227 2/Mas4 TIC6282615 1965 Solomas Nicole 3h19:00.9 1h32:29.6 1306.82
49 6313 8/Mas2 TIC6281409 1976 Farizon Clauss Muriel 3h19:52.5 1h33:21.2 1318.12
50 6279 7/Mas1 TIC6282723 1980 Urner Isabelle 3h19:55.8 1h33:24.5 1318.82
51 6287 3/Mas4 FFS2660346 1962 Gueugneau Catherine BO SKI CLUB BAS 3h22:07.4 1h35:36.1 1347.62
52 6255 8/Mas1 TIC6281363 1979 Durando Cécile 3h22:44.7 1h36:13.4 1355.82
53 6238 9/Mas1 TIC6281425 1979 Feigean Anne-Laure 3h23:07.3 1h36:36.0 1360.82
54 6285 5/Mas3 TIC6282784 1967 Vionnet Françoise 3h23:27.1 1h36:55.8 1365.12
55 6263 25/SEN TIC6282507 1982 Roussel Maud 3h23:40.1 1h37:08.8 1367.92
56 6268 6/Mas3 TIC6281073 1971 Chambe Aude 3h24:07.5 1h37:36.2 1373.92
57 6292 4/Mas4 TIC6281534 1966 Gerard Marie Rose 3h24:30.2 1h37:58.9 1378.92
58 6237 10/Mas1 TIC6282289 1977 Paulin Marion 3h24:49.3 1h38:18.0 1383.12
59 6212 26/SEN TIC6281185 1991 Cottin Guillemette 3h24:55.9 1h38:24.6 1384.52
60 6269 7/Mas3 TIC6281475 1970 Fremion Nathalie 3h25:07.8 1h38:36.5 1387.22
61 6230 8/Mas3 TIC6282441 1969 Renck Barbara 3h25:18.8 1h38:47.5 1389.62
62 6319 27/SEN TIC6281654 1987 Harle Flore 3h25:21.3 1h38:50.0 1390.12
63 6281 9/Mas2 TIC6282707 1973 Trembleau Christelle 3h28:19.6 1h41:48.3 1429.22
64 6309 28/SEN TIC6281769 1982 Joseph Valérie 3h28:19.9 1h41:48.6 1429.22
65 6224 3/Mas5 TIC6281302 1961 Dessey Pascale 3h28:43.2 1h42:11.9 1434.32
66 6282 3/JUN FFS2604612 1992 Letoublon Fanny 3h30:07.3 1h43:36.0 1452.82
67 6295 9/Mas3 LCN11271810 1969 Turgault Françoise MJ U.S CHAUMERA 3h32:37.9 1h46:06.6 1485.72
68 6275 29/SEN TIC6281190 1983 Coulon Anne 3h33:14.7 1h46:43.4 1493.82
69 6252 10/Mas3 TIC6282081 1971 Melquiod Geraldine 3h34:34.1 1h48:02.8 1511.22
70 6284 30/SEN TIC6282545 1983 Sanial Géraldine 3h38:06.6 1h51:35.3 1557.72
71 6243 11/Mas3 LCN11263904 1968 Besseyrias Corinne MV SC AMNEVILLE 3h38:06.7 1h51:35.4 1557.82
72 6278 11/Mas1 TIC6282165 1981 Morissee Audrey 3h38:07.1 1h51:35.8 1557.92
73 6320 12/Mas1 TIC6281890 1979 Le Tareau Christine 3h38:46.4 1h52:15.1 1566.52
74 6289 10/Mas2 TIC6281272 1975 Delpont Aurélie 3h39:31.8 1h53:00.5 1576.42
75 6225 5/Mas4 LCN11275886 1965 Courty Cécile MJ ENTENTE SPOR 3h39:45.7 1h53:14.4 1579.52
76 6017 2/Mas6 TIC6281553 1955 Giodesen Lund Anne Birgit 3h41:07.5 1h54:36.2 1597.42
77 6316 31/SEN TIC6281398 1986 Eyraud Anaïs 3h42:57.9 1h56:26.6 1621.62
78 6317 6/Mas4 TIC6282382 1965 Poudevigne Sylvie 3h43:11.1 1h56:39.8 1624.42
79 6312 4/Mas5 TIC6281497 1959 Galluzzo Valérie 3h43:26.9 1h56:55.6 1627.92
80 6315 5/Mas5 TIC6281753 1958 Jobard Evelyne 3h46:03.2 1h59:31.9 1662.12
81 6234 32/SEN TIC6281888 1984 Le Pors Marie 3h46:20.7 1h59:49.4 1666.02
82 6276 33/SEN TIC6281923 1986 Letfusova Verca 3h48:06.4 2h01:35.1 1689.12
83 6240 13/Mas1 TIC6282001 1977 Marandet Isabelle 3h51:44.4 2h05:13.1 1736.92
84 6272 34/SEN TIC6282656 1984 Tarroux Estelle 3h53:06.6 2h06:35.3 1754.92
85 6280 11/Mas2 TIC6281936 1974 Livet Alessandra 3h54:01.4 2h07:30.1 1766.92
86 6274 12/Mas3 TIC6281395 1967 Evans Claire 3h56:48.8 2h10:17.5 1803.62
87 6318 12/Mas2 LCN11276766 1976 Mrugalski Louise SA S.C BOURG ST 3h57:08.6 2h10:37.3 1807.92
88 6283 13/Mas3 TIC6281695 1970 Hubert Cécile 4h06:23.3 2h19:52.0 1929.42
89 6217 14/Mas3 TIC6282734 1969 Valode Virginie 4h08:13.4 2h21:42.1 1953.52
90 6244 7/Mas4 TIC6281263 1962 Delaunay Florence 4h08:48.8 2h22:17.5 1961.32
91 6308 8/Mas4 TIC6281211 1964 Cummings Lucy 4h10:18.4 2h23:47.1 1980.92
92 6207 14/Mas1 FFS2652758 1980 Antoine Corinne MV A.S GERARDME 4h11:48.5 2h25:17.2 2000.62
93 6306 15/Mas3 TIC6281337 1970 Drummond Raphaele 4h12:57.3 2h26:26.0 2015.72
94 6251 6/Mas5 FFS2650609 1960 Harle Stella IF BIATHLON CLU 4h20:50.1 2h34:18.8 2119.32
95 6266 7/Mas5 TIC6281621 1960 Guernic Dominique 4h21:05.2 2h34:33.9 2122.62
96 6311 15/Mas1 TIC6281867 1978 Lardet Anne-Lise SAPAUDIA 4h55:25.8 3h08:54.5 2574.02
Abandons
6260 TIC6281312 1983 Dieulafait Laure
6261 TIC6282499 1978 Rossi Anne Laure
6290 TIC6282498 1979 Rosemberg Aurélie
6301 TIC6282477 1972 Roberts Suzanne
Non partants
6249 LCN11279241 1980 Oudart Blandine DA C.S VILLARD